createdAt,value
2018-04-09T00:00:20.322Z,76.10
2018-04-09T00:02:48.512Z,76.40
2018-04-09T00:05:16.682Z,75.30
2018-04-09T00:07:44.886Z,74.60
2018-04-09T00:10:13.852Z,75.10
2018-04-09T00:12:42.025Z,75.10
2018-04-09T00:15:10.202Z,75.60
2018-04-09T00:17:38.382Z,74.80
2018-04-09T00:20:06.562Z,75.20
2018-04-09T00:22:35.506Z,76.40
2018-04-09T00:25:03.676Z,76.30
2018-04-09T00:27:31.878Z,76.70
2018-04-09T00:30:00.046Z,76.70
2018-04-09T00:32:28.231Z,77.00
2018-04-09T00:34:56.438Z,77.10
2018-04-09T00:37:25.379Z,77.80
2018-04-09T00:39:53.555Z,77.70
2018-04-09T00:42:21.754Z,78.20
2018-04-09T00:44:49.926Z,78.60
2018-04-09T00:47:18.101Z,78.90
2018-04-09T00:49:46.275Z,78.70
2018-04-09T00:52:14.443Z,78.10
2018-04-09T00:54:42.616Z,77.80
2018-04-09T00:57:10.778Z,77.90
2018-04-09T00:59:38.979Z,77.70
2018-04-09T01:02:07.158Z,77.20
2018-04-09T01:04:35.348Z,77.10
2018-04-09T01:07:04.299Z,76.80
2018-04-09T01:09:32.466Z,76.70
2018-04-09T01:12:00.682Z,77.30
2018-04-09T01:14:28.858Z,77.50
2018-04-09T01:16:57.026Z,78.10
2018-04-09T01:19:25.240Z,78.40
2018-04-09T01:21:53.405Z,78.60
2018-04-09T01:24:22.334Z,79.10
2018-04-09T01:26:50.506Z,79.10
2018-04-09T01:29:18.674Z,79.30
2018-04-09T01:31:46.883Z,79.50
2018-04-09T01:34:15.067Z,79.50
2018-04-09T01:36:43.275Z,79.80
2018-04-09T01:39:11.447Z,79.90
2018-04-09T01:41:40.377Z,78.80
2018-04-09T01:44:08.550Z,78.70
2018-04-09T01:46:36.719Z,78.70
2018-04-09T01:49:04.897Z,78.80
2018-04-09T01:51:33.070Z,79.20
2018-04-09T01:54:01.239Z,79.10
2018-04-09T01:56:29.409Z,79.00
2018-04-09T01:58:57.603Z,78.90
2018-04-09T02:01:25.774Z,78.70
2018-04-09T02:03:53.961Z,78.50
2018-04-09T02:06:22.146Z,78.50
2018-04-09T02:08:50.315Z,78.80
2018-04-09T02:11:18.482Z,79.10
2018-04-09T02:13:46.685Z,79.30
2018-04-09T02:16:14.850Z,79.60
2018-04-09T02:18:43.024Z,79.70
2018-04-09T02:21:11.208Z,80.00
2018-04-09T02:23:39.384Z,79.90
2018-04-09T02:26:08.333Z,78.90
2018-04-09T02:28:36.498Z,78.80
2018-04-09T02:31:04.679Z,78.50
2018-04-09T02:33:32.860Z,78.80
2018-04-09T02:36:01.034Z,79.30
2018-04-09T02:38:29.228Z,79.40
2018-04-09T02:40:57.406Z,79.30
2018-04-09T02:43:25.575Z,79.40
2018-04-09T02:45:53.766Z,78.90
2018-04-09T02:48:21.934Z,78.40
2018-04-09T02:50:50.108Z,79.30
2018-04-09T02:53:19.092Z,78.30
2018-04-09T02:55:47.268Z,78.20
2018-04-09T02:58:15.443Z,78.70
2018-04-09T03:00:43.618Z,79.30
2018-04-09T03:03:11.813Z,79.30
2018-04-09T03:05:40.767Z,79.60
2018-04-09T03:08:08.940Z,79.50
2018-04-09T03:10:37.109Z,79.90
2018-04-09T03:13:05.295Z,79.90
2018-04-09T03:15:33.468Z,79.30
2018-04-09T03:18:01.639Z,78.90
2018-04-09T03:20:29.835Z,79.00
2018-04-09T03:22:58.033Z,78.80
2018-04-09T03:25:26.966Z,79.40
2018-04-09T03:27:55.154Z,79.40
2018-04-09T03:30:23.325Z,79.20
2018-04-09T03:32:51.521Z,79.20
2018-04-09T03:35:19.694Z,79.30
2018-04-09T03:37:48.638Z,79.30
2018-04-09T03:40:16.810Z,79.40
2018-04-09T03:42:44.985Z,79.30
2018-04-09T03:45:13.159Z,80.60
2018-04-09T03:47:41.334Z,81.10
2018-04-09T03:50:09.494Z,81.30
2018-04-09T03:52:38.435Z,81.00
2018-04-09T03:55:06.604Z,81.00
2018-04-09T03:57:34.788Z,81.40
2018-04-09T04:00:02.960Z,81.10
2018-04-09T04:02:31.160Z,80.90
2018-04-09T04:04:59.324Z,81.00
2018-04-09T04:07:27.483Z,81.30
2018-04-09T04:09:55.653Z,81.20
2018-04-09T04:12:23.814Z,81.10
2018-04-09T04:14:51.977Z,81.20
2018-04-09T04:17:37.757Z,80.90
2018-04-09T04:20:23.805Z,81.00
2018-04-09T04:22:51.980Z,81.10
2018-04-09T04:25:20.174Z,81.00
2018-04-09T04:27:49.127Z,81.00
2018-04-09T04:30:17.287Z,80.10
2018-04-09T04:32:45.454Z,80.90
2018-04-09T04:35:13.619Z,81.70
2018-04-09T04:37:41.787Z,80.80
2018-04-09T04:40:10.715Z,80.10
2018-04-09T04:42:38.882Z,80.00
2018-04-09T04:45:07.102Z,79.70
2018-04-09T04:47:35.274Z,79.60
2018-04-09T04:50:03.447Z,79.60
2018-04-09T04:52:31.633Z,79.30
2018-04-09T04:55:00.582Z,80.20
2018-04-09T04:57:28.754Z,80.20
2018-04-09T04:59:56.935Z,78.30
2018-04-09T05:02:25.882Z,78.30
2018-04-09T05:04:54.814Z,77.80
2018-04-09T05:07:22.985Z,78.80
2018-04-09T05:09:51.154Z,77.50
2018-04-09T05:12:19.350Z,77.60
2018-04-09T05:14:47.533Z,76.60
2018-04-09T05:17:15.706Z,76.40
2018-04-09T05:19:43.881Z,76.40
2018-04-09T05:22:12.058Z,75.80
2018-04-09T05:24:40.995Z,75.10
2018-04-09T05:27:09.942Z,75.90
2018-04-09T05:29:38.173Z,75.90
2018-04-09T05:32:06.409Z,75.80
2018-04-09T05:34:34.563Z,74.70
2018-04-09T05:37:03.518Z,74.40
2018-04-09T05:39:31.679Z,74.60
2018-04-09T05:41:59.847Z,73.60
2018-04-09T05:44:28.818Z,73.80
2018-04-09T05:46:57.006Z,73.70
2018-04-09T05:49:25.978Z,73.20
2018-04-09T05:51:54.155Z,73.00
2018-04-09T05:54:22.335Z,73.30
2018-04-09T05:56:50.519Z,73.20
2018-04-09T05:59:19.470Z,73.70
2018-04-09T06:01:47.658Z,73.50
2018-04-09T06:04:15.835Z,72.80
2018-04-09T06:06:44.017Z,72.90
2018-04-09T06:09:12.178Z,72.70
2018-04-09T06:11:40.379Z,72.50
2018-04-09T06:14:08.552Z,72.20
2018-04-09T06:16:37.511Z,72.00
2018-04-09T06:19:05.685Z,71.80
2018-04-09T06:21:33.875Z,71.80
2018-04-09T06:24:02.045Z,71.50
2018-04-09T06:26:30.222Z,71.30
2018-04-09T06:28:58.430Z,70.90
2018-04-09T06:31:27.374Z,71.00
2018-04-09T06:33:55.550Z,70.90
2018-04-09T06:36:23.723Z,70.80
2018-04-09T06:38:51.915Z,70.70
2018-04-09T06:41:20.112Z,70.50
2018-04-09T06:43:48.304Z,70.20
2018-04-09T06:46:17.251Z,70.00
2018-04-09T06:48:45.450Z,69.80
2018-04-09T06:51:13.622Z,69.40
2018-04-09T06:53:41.825Z,68.80
2018-04-09T06:56:10.804Z,68.00
2018-04-09T06:58:39.856Z,68.00
2018-04-09T07:01:08.049Z,68.60
2018-04-09T07:03:36.250Z,66.70
2018-04-09T07:06:05.213Z,66.30
2018-04-09T07:08:33.414Z,65.40
2018-04-09T07:11:02.357Z,63.60
2018-04-09T07:13:30.561Z,63.50
2018-04-09T07:15:58.734Z,63.00
2018-04-09T07:18:26.900Z,62.40
2018-04-09T07:20:55.070Z,61.80
2018-04-09T07:23:23.233Z,61.50
2018-04-09T07:25:51.455Z,61.00
2018-04-09T07:28:20.393Z,63.00
2018-04-09T07:30:48.568Z,62.70
2018-04-09T07:33:16.748Z,60.70
2018-04-09T07:35:44.929Z,60.00
2018-04-09T07:38:13.112Z,59.60
2018-04-09T07:40:41.285Z,59.00
2018-04-09T07:43:09.450Z,58.60
2018-04-09T07:45:37.718Z,57.40
2018-04-09T07:48:05.908Z,57.20
2018-04-09T07:50:34.077Z,57.20
2018-04-09T07:53:02.249Z,56.90
2018-04-09T07:55:30.480Z,56.50
2018-04-09T07:57:59.428Z,56.00
2018-04-09T08:00:27.611Z,56.00
2018-04-09T08:02:55.814Z,55.70
2018-04-09T08:05:24.768Z,55.00
2018-04-09T08:07:52.944Z,55.00
2018-04-09T08:10:21.106Z,54.90
2018-04-09T08:12:49.284Z,55.40
2018-04-09T08:15:17.454Z,54.90
2018-04-09T08:17:45.637Z,54.60
2018-04-09T08:20:13.810Z,54.40
2018-04-09T08:22:41.991Z,54.40
2018-04-09T08:25:10.197Z,54.00
2018-04-09T08:27:38.374Z,54.00
2018-04-09T08:30:06.556Z,53.80
2018-04-09T08:32:35.507Z,53.00
2018-04-09T08:35:04.451Z,52.60
2018-04-09T08:37:33.375Z,52.10
2018-04-09T08:40:01.563Z,52.00
2018-04-09T08:42:29.831Z,51.90
2018-04-09T08:44:58.001Z,51.50
2018-04-09T08:47:26.189Z,52.20
2018-04-09T08:49:54.364Z,51.00
2018-04-09T08:52:22.582Z,51.30
2018-04-09T08:54:51.531Z,50.10
2018-04-09T08:57:19.710Z,50.10
2018-04-09T08:59:47.884Z,48.90
2018-04-09T09:02:16.210Z,48.30
2018-04-09T09:04:45.140Z,46.70
2018-04-09T09:07:13.330Z,46.70
2018-04-09T09:09:41.507Z,45.00
2018-04-09T09:12:09.693Z,44.20
2018-04-09T09:14:37.874Z,44.30
2018-04-09T09:17:06.040Z,43.80
2018-04-09T09:19:34.204Z,43.80
2018-04-09T09:22:02.387Z,44.20
2018-04-09T09:24:31.474Z,44.00
2018-04-09T09:26:59.648Z,44.00
2018-04-09T09:29:27.829Z,43.70
2018-04-09T09:31:56.020Z,42.70
2018-04-09T09:34:24.191Z,42.90
2018-04-09T09:36:52.384Z,41.60
2018-04-09T09:39:21.317Z,41.40
2018-04-09T09:41:49.476Z,41.30
2018-04-09T09:44:17.683Z,42.20
2018-04-09T09:46:45.862Z,41.50
2018-04-09T09:49:14.041Z,41.40
2018-04-09T09:51:42.229Z,40.70
2018-04-09T09:54:10.408Z,40.50
2018-04-09T09:56:38.579Z,40.50
2018-04-09T09:59:06.753Z,40.20
2018-04-09T10:01:40.396Z,39.80
2018-04-09T10:04:08.550Z,40.00
2018-04-09T10:06:37.499Z,39.80
2018-04-09T10:09:06.595Z,39.80
2018-04-09T10:11:34.777Z,40.00
2018-04-09T10:14:02.942Z,39.80
2018-04-09T10:16:31.153Z,38.80
2018-04-09T10:19:00.135Z,40.50
2018-04-09T10:21:28.709Z,40.40
2018-04-09T10:24:02.806Z,38.80
2018-04-09T10:26:31.367Z,38.80
2018-04-09T10:29:03.181Z,38.90
2018-04-09T10:31:34.199Z,38.70
2018-04-09T10:34:02.462Z,38.30
2018-04-09T10:36:30.642Z,36.90
2018-04-09T10:38:59.052Z,36.00
2018-04-09T10:41:27.465Z,36.10
2018-04-09T10:43:55.687Z,35.90
2018-04-09T10:46:23.892Z,36.50
2018-04-09T10:48:52.716Z,36.70
2018-04-09T10:51:23.676Z,33.90
2018-04-09T10:53:53.096Z,35.00
2018-04-09T10:56:23.379Z,34.90
2018-04-09T10:58:53.002Z,34.00
2018-04-09T11:01:21.455Z,33.90
2018-04-09T11:03:50.792Z,33.50
2018-04-09T11:06:18.993Z,33.50
2018-04-09T11:08:54.554Z,33.40
2018-04-09T11:11:26.311Z,33.10
2018-04-09T11:13:55.120Z,33.20
2018-04-09T11:16:24.430Z,32.70
2018-04-09T11:18:53.507Z,33.10
2018-04-09T11:21:21.693Z,33.00
2018-04-09T11:23:50.832Z,32.90
2018-04-09T11:26:19.366Z,32.90
2018-04-09T11:28:48.354Z,31.60
2018-04-09T11:31:16.530Z,31.50
2018-04-09T11:33:47.517Z,30.20
2018-04-09T11:36:17.189Z,29.20
2018-04-09T11:38:45.393Z,29.20
2018-04-09T11:41:13.556Z,28.50
2018-04-09T11:43:43.315Z,26.60
2018-04-09T11:46:12.314Z,27.20
2018-04-09T11:48:40.489Z,27.10
2018-04-09T11:51:08.676Z,27.10
2018-04-09T11:53:36.841Z,27.40
2018-04-09T11:56:04.995Z,26.70
2018-04-09T11:58:33.173Z,26.50
2018-04-09T12:01:01.368Z,26.30
2018-04-09T12:03:29.533Z,25.90
2018-04-09T12:05:57.698Z,26.70
2018-04-09T12:08:25.881Z,27.00
2018-04-09T12:10:54.248Z,27.80
2018-04-09T12:13:22.436Z,26.40
2018-04-09T12:15:50.644Z,26.00
2018-04-09T12:18:20.336Z,26.10
2018-04-09T12:20:48.502Z,26.10
2018-04-09T12:23:16.689Z,25.80
2018-04-09T12:25:44.862Z,25.60
2018-04-09T12:28:13.027Z,26.10
2018-04-09T12:30:41.207Z,26.80
2018-04-09T12:33:09.381Z,27.30
2018-04-09T12:35:37.549Z,28.00
2018-04-09T12:38:05.736Z,27.90
2018-04-09T12:40:33.912Z,27.10
2018-04-09T12:43:02.092Z,26.10
2018-04-09T12:45:30.275Z,25.40
2018-04-09T12:47:59.213Z,22.90
2018-04-09T12:50:27.399Z,22.80
2018-04-09T12:52:55.565Z,22.60
2018-04-09T12:55:23.739Z,22.00
2018-04-09T12:57:51.889Z,22.60
2018-04-09T13:00:20.051Z,22.20
2018-04-09T13:02:49.016Z,20.90
2018-04-09T13:05:17.192Z,20.90
2018-04-09T13:07:45.424Z,20.10
2018-04-09T13:10:15.929Z,18.80
2018-04-09T13:12:44.128Z,18.80
2018-04-09T13:15:12.323Z,18.80
2018-04-09T13:17:40.579Z,17.80
2018-04-09T13:20:08.740Z,17.10
2018-04-09T13:22:36.910Z,17.80
2018-04-09T13:25:05.077Z,17.70
2018-04-09T13:27:33.252Z,17.10
2018-04-09T13:30:01.427Z,16.90
2018-04-09T13:32:29.594Z,16.70
2018-04-09T13:34:58.534Z,16.10
2018-04-09T13:37:26.705Z,16.00
2018-04-09T13:39:54.872Z,16.80
2018-04-09T13:42:23.061Z,16.50
2018-04-09T13:44:51.289Z,16.00
2018-04-09T13:47:19.464Z,16.60
2018-04-09T13:49:47.637Z,17.70
2018-04-09T13:52:16.564Z,20.60
2018-04-09T13:54:44.739Z,20.50
2018-04-09T13:57:13.021Z,20.60
2018-04-09T13:59:41.202Z,20.60
2018-04-09T14:02:09.372Z,20.90
2018-04-09T14:04:37.564Z,21.70
2018-04-09T14:07:05.756Z,23.80
2018-04-09T14:09:33.932Z,24.50
2018-04-09T14:12:02.872Z,26.40
2018-04-09T14:14:31.050Z,26.30
2018-04-09T14:16:59.227Z,24.40
2018-04-09T14:19:27.428Z,25.40
2018-04-09T14:21:55.618Z,25.60
2018-04-09T14:24:23.780Z,25.70
2018-04-09T14:26:53.559Z,23.60
2018-04-09T14:29:21.721Z,24.10
2018-04-09T14:31:49.953Z,23.00
2018-04-09T14:34:18.123Z,24.00
2018-04-09T14:36:47.806Z,25.10
2018-04-09T14:39:15.982Z,25.00
2018-04-09T14:41:44.163Z,25.40
2018-04-09T14:44:12.331Z,24.20
2018-04-09T14:46:41.304Z,25.00
2018-04-09T14:49:09.505Z,24.90
2018-04-09T14:51:37.671Z,23.80
2018-04-09T14:54:05.846Z,23.10
2018-04-09T14:56:34.029Z,22.20
2018-04-09T14:59:02.201Z,22.00
2018-04-09T15:01:30.367Z,22.50
2018-04-09T15:03:58.542Z,22.90
2018-04-09T15:06:26.764Z,23.80
2018-04-09T15:08:55.708Z,23.60
2018-04-09T15:11:23.892Z,23.50
2018-04-09T15:13:52.066Z,23.70
2018-04-09T15:16:20.235Z,23.20
2018-04-09T15:18:48.411Z,23.30
2018-04-09T15:21:16.585Z,23.40
2018-04-09T15:23:44.761Z,24.00
2018-04-09T15:26:12.967Z,24.90
2018-04-09T15:28:41.179Z,25.80
2018-04-09T15:31:09.366Z,26.70
2018-04-09T15:33:37.592Z,27.20
2018-04-09T15:36:05.788Z,26.70
2018-04-09T15:38:33.980Z,26.50
2018-04-09T15:41:02.156Z,26.70
2018-04-09T15:43:30.330Z,27.70
2018-04-09T15:45:58.504Z,28.00
2018-04-09T15:48:26.674Z,28.60
2018-04-09T15:50:54.848Z,29.60
2018-04-09T15:53:23.019Z,29.90
2018-04-09T15:55:51.945Z,30.40
2018-04-09T15:58:20.127Z,30.30
2018-04-09T16:00:48.299Z,30.80
2018-04-09T16:03:16.508Z,30.50
2018-04-09T16:05:44.735Z,31.10
2018-04-09T16:08:12.922Z,31.30
2018-04-09T16:10:41.096Z,31.60
2018-04-09T16:13:09.305Z,32.10
2018-04-09T16:15:37.505Z,32.00
2018-04-09T16:18:06.499Z,32.20
2018-04-09T16:20:35.436Z,32.20
2018-04-09T16:23:03.620Z,32.20
2018-04-09T16:25:31.813Z,32.20
2018-04-09T16:28:00.006Z,32.60
2018-04-09T16:30:28.952Z,33.10
2018-04-09T16:32:57.902Z,33.70
2018-04-09T16:35:26.868Z,33.20
2018-04-09T16:37:55.040Z,33.10
2018-04-09T16:40:23.210Z,34.40
2018-04-09T16:42:51.415Z,35.20
2018-04-09T16:45:20.367Z,33.70
2018-04-09T16:47:48.574Z,33.60
2018-04-09T16:50:16.731Z,34.70
2018-04-09T16:52:44.904Z,34.50
2018-04-09T16:55:13.157Z,35.00
2018-04-09T16:57:41.313Z,35.10
2018-04-09T17:00:09.513Z,35.30
2018-04-09T17:02:37.695Z,35.60
2018-04-09T17:05:05.868Z,35.90
2018-04-09T17:07:34.051Z,36.10
2018-04-09T17:10:02.990Z,36.30
2018-04-09T17:12:31.191Z,36.30
2018-04-09T17:14:59.380Z,36.50
2018-04-09T17:17:27.634Z,37.10
2018-04-09T17:19:55.841Z,37.50
2018-04-09T17:22:24.025Z,38.10
2018-04-09T17:24:52.216Z,38.70
2018-04-09T17:27:21.146Z,40.50
2018-04-09T17:29:49.323Z,39.80
2018-04-09T17:32:17.606Z,40.90
2018-04-09T17:34:45.797Z,42.20
2018-04-09T17:37:13.964Z,43.50
2018-04-09T17:39:42.144Z,44.50
2018-04-09T17:42:10.372Z,45.20
2018-04-09T17:44:39.351Z,47.10
2018-04-09T17:47:08.291Z,48.20
2018-04-09T17:49:36.669Z,47.40
2018-04-09T17:52:04.862Z,47.20
2018-04-09T17:54:33.074Z,47.20
2018-04-09T17:57:02.021Z,47.40
2018-04-09T17:59:30.179Z,47.20
2018-04-09T18:01:58.357Z,47.20
2018-04-09T18:04:26.557Z,47.10
2018-04-09T18:06:54.763Z,47.80
2018-04-09T18:09:23.709Z,48.40
2018-04-09T18:11:51.876Z,48.30
2018-04-09T18:14:20.047Z,48.50
2018-04-09T18:16:48.227Z,48.60
2018-04-09T18:19:16.400Z,48.90
2018-04-09T18:21:44.575Z,48.70
2018-04-09T18:24:12.749Z,48.70
2018-04-09T18:26:40.923Z,48.80
2018-04-09T18:29:09.101Z,48.70
2018-04-09T18:31:37.283Z,48.90
2018-04-09T18:34:05.465Z,50.30
2018-04-09T18:36:33.656Z,50.00
2018-04-09T18:39:01.841Z,50.20
2018-04-09T18:41:30.021Z,50.00
2018-04-09T18:43:58.199Z,50.30
2018-04-09T18:46:27.134Z,50.90
2018-04-09T18:48:55.299Z,50.70
2018-04-09T18:51:23.463Z,51.10
2018-04-09T18:53:51.645Z,51.40
2018-04-09T18:56:19.825Z,51.30
2018-04-09T18:58:47.992Z,51.40
2018-04-09T19:01:16.164Z,51.50
2018-04-09T19:03:44.337Z,51.80
2018-04-09T19:06:12.522Z,51.70
2018-04-09T19:08:40.695Z,51.60
2018-04-09T19:11:08.874Z,51.50
2018-04-09T19:13:37.080Z,51.70
2018-04-09T19:16:05.277Z,52.20
2018-04-09T19:18:33.460Z,51.60
2018-04-09T19:21:02.402Z,52.20
2018-04-09T19:23:30.586Z,51.50
2018-04-09T19:25:58.766Z,52.10
2018-04-09T19:28:26.947Z,52.10
2018-04-09T19:30:55.118Z,51.70
2018-04-09T19:33:23.287Z,51.80
2018-04-09T19:35:57.129Z,52.50
2018-04-09T19:38:30.897Z,52.20
2018-04-09T19:40:59.079Z,52.80
2018-04-09T19:43:27.253Z,52.90
2018-04-09T19:45:55.429Z,52.80
2018-04-09T19:48:23.854Z,52.00
2018-04-09T19:50:52.094Z,52.60
2018-04-09T19:53:20.294Z,52.70
2018-04-09T19:55:49.243Z,52.20
2018-04-09T19:58:18.000Z,52.20
2018-04-09T20:00:46.193Z,52.50
2018-04-09T20:03:14.632Z,52.20
2018-04-09T20:05:42.974Z,52.70
2018-04-09T20:08:11.383Z,53.00
2018-04-09T20:10:39.585Z,53.60
2018-04-09T20:13:07.901Z,53.80
2018-04-09T20:15:36.095Z,54.50
2018-04-09T20:18:04.269Z,55.00
2018-04-09T20:20:32.457Z,55.40
2018-04-09T20:23:00.634Z,55.90
2018-04-09T20:25:28.813Z,56.00
2018-04-09T20:27:57.764Z,57.80
2018-04-09T20:30:25.937Z,57.80
2018-04-09T20:32:54.123Z,57.30
2018-04-09T20:35:22.425Z,57.60
2018-04-09T20:37:51.389Z,57.30
2018-04-09T20:40:19.811Z,57.30
2018-04-09T20:42:48.168Z,57.80
2018-04-09T20:45:17.134Z,58.90
2018-04-09T20:47:45.302Z,58.80
2018-04-09T20:50:13.488Z,59.00
2018-04-09T20:52:41.660Z,58.20
2018-04-09T20:55:09.924Z,58.90
2018-04-09T20:57:38.114Z,58.70
2018-04-09T21:00:06.322Z,59.40
2018-04-09T21:02:34.507Z,59.60
2018-04-09T21:05:03.448Z,59.70
2018-04-09T21:07:31.642Z,59.60
2018-04-09T21:09:59.819Z,59.80
2018-04-09T21:12:28.005Z,60.00
2018-04-09T21:14:56.178Z,60.00
2018-04-09T21:17:24.362Z,60.50
2018-04-09T21:19:52.533Z,60.90
2018-04-09T21:22:20.711Z,61.00
2018-04-09T21:24:48.898Z,61.20
2018-04-09T21:27:17.840Z,61.50
2018-04-09T21:29:46.014Z,61.30
2018-04-09T21:32:14.209Z,61.40
2018-04-09T21:34:42.373Z,62.00
2018-04-09T21:37:10.550Z,61.50
2018-04-09T21:39:38.717Z,62.10
2018-04-09T21:42:06.946Z,62.70
2018-04-09T21:44:35.882Z,63.50
2018-04-09T21:47:04.056Z,63.40
2018-04-09T21:49:32.220Z,63.00
2018-04-09T21:52:00.397Z,62.80
2018-04-09T21:54:28.562Z,62.40
2018-04-09T21:56:56.722Z,62.50
2018-04-09T21:59:24.892Z,62.70
2018-04-09T22:01:53.819Z,63.50
2018-04-09T22:04:21.985Z,63.50
2018-04-09T22:06:50.168Z,63.70
2018-04-09T22:09:18.349Z,64.30
2018-04-09T22:11:46.527Z,64.90
2018-04-09T22:14:14.691Z,64.90
2018-04-09T22:16:42.854Z,65.20
2018-04-09T22:19:11.017Z,65.00
2018-04-09T22:21:39.199Z,65.40
2018-04-09T22:24:07.478Z,65.80
2018-04-09T22:26:35.667Z,65.70
2018-04-09T22:29:03.893Z,65.50
2018-04-09T22:31:32.824Z,65.80
2018-04-09T22:34:00.995Z,65.70
2018-04-09T22:36:29.156Z,66.40
2018-04-09T22:38:57.320Z,65.90
2018-04-09T22:41:26.245Z,66.50
2018-04-09T22:43:54.424Z,66.40
2018-04-09T22:46:22.585Z,66.20
2018-04-09T22:48:50.740Z,66.00
2018-04-09T22:51:18.932Z,66.40
2018-04-09T22:53:47.096Z,66.70
2018-04-09T22:56:15.260Z,67.20
2018-04-09T22:58:44.200Z,68.30
2018-04-09T23:01:12.370Z,68.30
2018-04-09T23:03:40.535Z,68.70
2018-04-09T23:06:08.698Z,69.50
2018-04-09T23:08:36.860Z,69.90
2018-04-09T23:11:05.054Z,70.10
2018-04-09T23:13:33.221Z,70.60
2018-04-09T23:16:01.383Z,71.00
2018-04-09T23:18:29.580Z,71.00
2018-04-09T23:20:57.757Z,71.70
2018-04-09T23:23:25.920Z,71.80
2018-04-09T23:25:54.082Z,71.70
2018-04-09T23:28:22.241Z,72.20
2018-04-09T23:30:51.180Z,72.90
2018-04-09T23:33:19.345Z,72.90
2018-04-09T23:35:47.524Z,73.00
2018-04-09T23:38:15.688Z,73.40
2018-04-09T23:40:43.859Z,73.60
2018-04-09T23:43:12.046Z,73.80
2018-04-09T23:45:40.227Z,74.20
2018-04-09T23:48:08.391Z,74.50
2018-04-09T23:50:36.557Z,74.90
2018-04-09T23:53:04.732Z,75.40
2018-04-09T23:55:32.905Z,75.50
2018-04-09T23:58:01.079Z,75.70
